Time;durP1;ratioP1;P1;durP2;ratioP2;P2;SDS_P1;SDS_P2;PMS_P1;PMS_P2;Temp;Humidity;BMP_temperature;BMP_pressure;BME280_temperature;BME280_humidity;BME280_pressure;Samples;Min_cycle;Max_cycle;Signal;HPM_P1;HPM_P2
2022/10/24 00:02:06;;;;;;;20.70;4.13;;;15.50;99.90;;;;;;6202509;28;20052;-82
2022/10/24 00:05:12;;;;;;;23.23;3.50;;;15.50;99.90;;;;;;6202185;28;20057;-82
2022/10/24 00:08:14;;;;;;;21.35;5.05;;;15.60;99.90;;;;;;6202501;28;20050;-81
2022/10/24 00:11:18;;;;;;;29.95;3.88;;;15.60;99.90;;;;;;6203417;28;20047;-82
2022/10/24 00:14:20;;;;;;;11.82;3.55;;;15.50;99.90;;;;;;6227770;28;20415;-83
2022/10/24 00:17:22;;;;;;;20.73;3.55;;;15.50;99.90;;;;;;6227417;28;20069;-83
2022/10/24 00:20:25;;;;;;;13.07;3.88;;;15.50;99.90;;;;;;6227063;28;20049;-82
2022/10/24 00:23:27;;;;;;;24.90;4.07;;;15.40;99.90;;;;;;6226729;28;20050;-82
2022/10/24 00:26:28;;;;;;;7.95;3.72;;;15.40;99.90;;;;;;6228044;28;20073;-82
2022/10/24 00:29:30;;;;;;;19.25;4.03;;;15.40;99.90;;;;;;6226574;28;20046;-82
2022/10/24 00:32:32;;;;;;;16.02;3.47;;;15.50;99.90;;;;;;6206885;28;20061;-82
2022/10/24 00:35:35;;;;;;;10.90;3.33;;;15.30;99.90;;;;;;6197364;28;20065;-82
2022/10/24 00:38:37;;;;;;;12.90;3.00;;;15.20;99.90;;;;;;6204195;28;20054;-83
2022/10/24 00:41:42;;;;;;;15.98;3.22;;;15.20;99.90;;;;;;6203106;28;20050;-83
2022/10/24 00:44:46;;;;;;;23.50;4.53;;;15.20;99.90;;;;;;6203290;28;20052;-82
2022/10/24 00:47:49;;;;;;;19.67;2.75;;;15.20;99.90;;;;;;6203555;28;20050;-82
2022/10/24 00:50:55;;;;;;;10.50;3.38;;;15.10;99.90;;;;;;6204007;28;20046;-83
2022/10/24 00:54:02;;;;;;;17.65;3.67;;;15.00;99.90;;;;;;6203869;28;20054;-83
2022/10/24 00:57:08;;;;;;;15.32;4.60;;;15.00;99.90;;;;;;6203422;28;20101;-83
2022/10/24 01:00:14;;;;;;;26.95;3.85;;;15.00;99.90;;;;;;6203188;28;20042;-83
2022/10/24 01:03:16;;;;;;;20.63;3.17;;;14.90;99.90;;;;;;6203630;28;20054;-81
2022/10/24 01:06:40;;;;;;;12.18;2.70;;;14.80;99.90;;;;;;6201479;28;20057;-82
2022/10/24 01:10:08;;;;;;;15.40;4.40;;;14.60;99.90;;;;;;6203438;28;20046;-83
2022/10/24 01:13:20;;;;;;;21.38;3.03;;;14.60;99.90;;;;;;6203627;28;20046;-83
2022/10/24 01:16:28;;;;;;;14.95;2.88;;;14.60;99.90;;;;;;6203842;28;20528;-83
2022/10/24 01:20:00;;;;;;;13.20;3.80;;;14.60;99.90;;;;;;6203473;28;20050;-83
2022/10/24 01:23:38;;;;;;;10.80;2.70;;;14.60;99.90;;;;;;6172148;28;20050;-83
2022/10/24 01:26:57;;;;;;;18.60;3.30;;;14.70;99.90;;;;;;6179863;28;20081;-83
2022/10/24 01:30:06;;;;;;;12.77;3.20;;;14.70;99.90;;;;;;6192751;28;20044;-82
2022/10/24 01:33:17;;;;;;;17.60;3.55;;;14.70;99.90;;;;;;6204128;28;20428;-83
2022/10/24 01:36:29;;;;;;;18.70;4.07;;;14.60;99.90;;;;;;6216954;23;20055;-81
2022/10/24 01:39:36;;;;;;;12.20;3.55;;;14.60;99.90;;;;;;6204177;28;20079;-81
2022/10/24 01:42:39;;;;;;;16.80;4.27;;;14.50;99.90;;;;;;6205243;28;20046;-81
2022/10/24 01:45:48;;;;;;;12.63;2.92;;;14.50;99.90;;;;;;6205385;28;20059;-81
2022/10/24 01:48:56;;;;;;;11.40;3.13;;;14.50;99.90;;;;;;6206954;28;20050;-81
2022/10/24 01:52:01;;;;;;;25.50;4.53;;;14.60;99.90;;;;;;6206824;28;20046;-81
2022/10/24 01:55:04;;;;;;;15.45;2.88;;;14.60;99.90;;;;;;6207509;28;20057;-81
2022/10/24 01:58:07;;;;;;;15.95;3.17;;;14.60;99.90;;;;;;6207240;28;20054;-81
2022/10/24 02:01:14;;;;;;;11.30;3.58;;;14.60;99.90;;;;;;6205421;28;20046;-81
2022/10/24 02:04:16;;;;;;;44.40;4.73;;;14.50;99.90;;;;;;6205476;28;20050;-81
2022/10/24 02:07:19;;;;;;;18.13;4.00;;;14.50;99.90;;;;;;6204589;28;20057;-81
2022/10/24 02:10:25;;;;;;;10.77;3.40;;;14.50;99.90;;;;;;6205629;28;20042;-80
2022/10/24 02:13:32;;;;;;;20.23;5.18;;;14.50;99.90;;;;;;6205065;28;20519;-81
2022/10/24 02:16:35;;;;;;;11.70;2.70;;;14.60;99.90;;;;;;6205479;28;20050;-82
2022/10/24 02:19:38;;;;;;;16.48;3.28;;;14.60;99.90;;;;;;6204976;28;20050;-81
2022/10/24 02:22:46;;;;;;;14.07;3.10;;;14.50;99.90;;;;;;6202848;28;20396;-81
2022/10/24 02:25:52;;;;;;;15.02;3.35;;;14.50;99.90;;;;;;6184946;28;20051;-82
2022/10/24 02:28:57;;;;;;;15.82;3.20;;;14.50;99.90;;;;;;6180468;28;20054;-82
2022/10/24 02:32:06;;;;;;;13.40;2.50;;;14.50;99.90;;;;;;6180903;28;20053;-82
2022/10/24 02:35:10;;;;;;;13.07;2.95;;;14.50;99.90;;;;;;6181585;28;20058;-82
2022/10/24 02:38:16;;;;;;;13.23;3.17;;;14.50;99.90;;;;;;6179562;28;20412;-82
2022/10/24 02:41:21;;;;;;;18.77;4.35;;;14.50;99.90;;;;;;6180175;28;20050;-82
2022/10/24 02:44:25;;;;;;;18.40;2.78;;;14.50;99.90;;;;;;6181463;28;20047;-82
2022/10/24 02:47:29;;;;;;;17.23;3.38;;;14.60;99.90;;;;;;6183443;28;20142;-81
2022/10/24 02:50:32;;;;;;;7.57;2.63;;;14.50;99.90;;;;;;6185317;28;20425;-82
2022/10/24 02:53:36;;;;;;;27.15;3.92;;;14.60;99.90;;;;;;6178158;28;20057;-82
2022/10/24 02:56:43;;;;;;;13.95;2.85;;;14.60;99.90;;;;;;6177978;28;20428;-82
2022/10/24 02:59:44;;;;;;;10.77;3.47;;;14.70;99.90;;;;;;6178256;28;20051;-82
2022/10/24 03:02:47;;;;;;;10.40;2.63;;;14.80;99.90;;;;;;6179124;28;20057;-83
2022/10/24 03:05:49;;;;;;;18.65;3.78;;;14.90;99.90;;;;;;6178330;28;20116;-83
2022/10/24 03:08:51;;;;;;;12.20;2.85;;;15.00;99.90;;;;;;6178146;28;20070;-83
2022/10/24 03:11:53;;;;;;;23.88;3.15;;;15.10;99.90;;;;;;6178731;28;20047;-82
2022/10/24 03:14:54;;;;;;;18.63;3.10;;;15.10;99.90;;;;;;6178503;28;20433;-82
2022/10/24 03:17:57;;;;;;;10.15;2.85;;;15.10;99.90;;;;;;6178489;28;20427;-82
2022/10/24 03:20:59;;;;;;;12.90;3.13;;;15.10;99.90;;;;;;6182585;28;20031;-83
2022/10/24 03:24:01;;;;;;;19.33;3.10;;;15.10;99.90;;;;;;6208586;28;20038;-83
2022/10/24 03:27:02;;;;;;;17.63;3.13;;;15.20;99.90;;;;;;6212621;28;20061;-83
2022/10/24 03:30:05;;;;;;;10.85;2.70;;;15.20;99.90;;;;;;6211279;28;20046;-83
2022/10/24 03:33:08;;;;;;;14.93;2.78;;;15.20;99.90;;;;;;6210915;28;20058;-84
2022/10/24 03:36:10;;;;;;;23.80;3.72;;;15.20;99.90;;;;;;6210951;28;20051;-83
2022/10/24 03:39:12;;;;;;;11.50;2.67;;;15.20;99.90;;;;;;6210501;28;20046;-82
2022/10/24 03:42:13;;;;;;;8.82;2.97;;;15.20;99.90;;;;;;6204021;28;20059;-84
2022/10/24 03:45:15;;;;;;;21.90;3.08;;;15.20;99.90;;;;;;6203534;28;20054;-84
2022/10/24 03:48:18;;;;;;;17.30;2.75;;;15.20;99.90;;;;;;6204641;28;20058;-84
2022/10/24 03:51:20;;;;;;;12.90;2.92;;;15.20;99.90;;;;;;6203614;28;20053;-83
2022/10/24 03:54:21;;;;;;;16.88;3.20;;;15.10;99.90;;;;;;6204418;28;20049;-83
2022/10/24 03:57:23;;;;;;;13.00;2.45;;;15.10;99.90;;;;;;6202631;28;20042;-83
2022/10/24 04:00:27;;;;;;;9.75;2.60;;;15.10;99.90;;;;;;6203680;28;20057;-82
2022/10/24 04:03:30;;;;;;;17.15;2.58;;;15.10;99.90;;;;;;6203717;28;20058;-82
2022/10/24 04:06:32;;;;;;;13.63;2.38;;;15.10;99.90;;;;;;6203911;28;20047;-83
2022/10/24 04:09:34;;;;;;;20.88;3.05;;;15.10;99.90;;;;;;6203712;28;20039;-84
2022/10/24 04:12:36;;;;;;;16.52;7.68;;;15.10;99.90;;;;;;6204213;28;20052;-83
2022/10/24 04:15:38;;;;;;;19.98;3.35;;;15.00;99.90;;;;;;6203302;28;20073;-83
2022/10/24 04:18:41;;;;;;;16.30;3.67;;;15.10;99.90;;;;;;6204605;28;20067;-83
2022/10/24 04:21:42;;;;;;;13.75;2.30;;;15.10;99.90;;;;;;6204116;28;20046;-84
2022/10/24 04:24:45;;;;;;;12.70;3.53;;;15.10;99.90;;;;;;6201762;28;20543;-83
2022/10/24 04:27:46;;;;;;;16.50;3.30;;;15.10;99.90;;;;;;6189826;28;20054;-83
2022/10/24 04:30:54;;;;;;;22.75;3.08;;;15.10;99.90;;;;;;6204253;28;20065;-83
2022/10/24 04:33:57;;;;;;;30.45;4.18;;;15.10;99.90;;;;;;6203834;28;20042;-84
2022/10/24 04:36:59;;;;;;;10.93;2.88;;;15.10;99.90;;;;;;6204195;28;20056;-84
2022/10/24 04:40:00;;;;;;;24.08;2.80;;;15.20;99.90;;;;;;6204375;28;20054;-83
2022/10/24 04:43:02;;;;;;;10.93;2.67;;;15.20;99.90;;;;;;6203527;28;20046;-82
2022/10/24 04:46:04;;;;;;;11.90;3.53;;;15.20;99.90;;;;;;6203621;28;20087;-83
2022/10/24 04:49:08;;;;;;;26.98;4.40;;;15.30;99.90;;;;;;6203499;28;20050;-82
2022/10/24 04:52:10;;;;;;;28.23;3.95;;;15.30;99.90;;;;;;6203666;28;20073;-82
2022/10/24 04:55:12;;;;;;;21.45;4.78;;;15.30;99.90;;;;;;6205177;28;20050;-83
2022/10/24 04:58:14;;;;;;;16.83;5.30;;;15.30;99.90;;;;;;6205275;28;20072;-83
2022/10/24 05:01:15;;;;;;;26.98;6.32;;;15.40;99.90;;;;;;6205911;28;20042;-83
2022/10/24 05:04:18;;;;;;;28.58;5.25;;;15.60;99.90;;;;;;6207391;28;20061;-83
2022/10/24 05:07:20;;;;;;;29.20;6.20;;;15.70;99.90;;;;;;6206277;28;20051;-83
2022/10/24 05:10:22;;;;;;;27.88;4.55;;;15.80;99.90;;;;;;6206716;28;20512;-83
2022/10/24 05:13:24;;;;;;;23.50;4.90;;;15.80;99.90;;;;;;6207664;28;20543;-83
2022/10/24 05:16:25;;;;;;;20.65;4.95;;;15.80;99.90;;;;;;6206358;28;20055;-83
2022/10/24 05:19:29;;;;;;;32.80;4.55;;;15.90;99.90;;;;;;6206172;28;20499;-83
2022/10/24 05:22:30;;;;;;;17.67;4.32;;;16.00;99.90;;;;;;6210672;28;20611;-82
2022/10/24 05:25:32;;;;;;;22.33;4.97;;;16.00;99.90;;;;;;6207739;28;20046;-84
2022/10/24 05:28:34;;;;;;;12.35;3.92;;;16.10;99.90;;;;;;6205544;28;20054;-83
2022/10/24 05:31:36;;;;;;;15.32;4.13;;;16.10;99.90;;;;;;6214752;28;20053;-83
2022/10/24 05:34:39;;;;;;;20.95;3.85;;;16.10;99.90;;;;;;6213776;28;20046;-83
2022/10/24 05:37:42;;;;;;;21.92;4.63;;;16.20;99.90;;;;;;6212953;28;20056;-83
2022/10/24 05:40:46;;;;;;;19.40;4.15;;;16.20;99.90;;;;;;6213875;28;20089;-83
2022/10/24 05:43:48;;;;;;;11.38;4.03;;;16.40;99.90;;;;;;6213744;28;20070;-83
2022/10/24 05:46:49;;;;;;;15.68;3.05;;;16.50;99.90;;;;;;6213391;28;20074;-83
2022/10/24 05:49:52;;;;;;;14.57;3.90;;;16.50;99.90;;;;;;6213471;28;20060;-83
2022/10/24 05:52:54;;;;;;;18.83;6.47;;;16.70;99.90;;;;;;6213847;28;20050;-83
2022/10/24 05:55:56;;;;;;;13.40;3.65;;;16.70;99.90;;;;;;6213993;28;20046;-83
2022/10/24 05:58:58;;;;;;;26.75;5.65;;;16.70;99.90;;;;;;6214229;28;20058;-83
2022/10/24 06:02:00;;;;;;;18.70;4.85;;;16.70;99.90;;;;;;6212711;28;20038;-83
2022/10/24 06:05:03;;;;;;;16.80;3.17;;;16.90;99.90;;;;;;6213554;28;20046;-84
2022/10/24 06:08:05;;;;;;;14.07;3.80;;;16.90;99.90;;;;;;6202319;28;20420;-83
2022/10/24 06:11:09;;;;;;;14.52;3.72;;;16.90;99.90;;;;;;6198786;28;20054;-83
2022/10/24 06:14:11;;;;;;;15.15;3.95;;;16.90;99.90;;;;;;6198857;28;20516;-83
2022/10/24 06:17:12;;;;;;;10.65;3.20;;;16.90;99.90;;;;;;6199354;28;20053;-83
2022/10/24 06:20:16;;;;;;;7.80;2.45;;;16.90;99.90;;;;;;6199029;28;20500;-82
2022/10/24 06:23:18;;;;;;;8.20;3.53;;;16.90;99.90;;;;;;6204917;28;20428;-83
2022/10/24 06:26:20;;;;;;;21.05;2.95;;;16.90;99.90;;;;;;6206162;28;20133;-83
2022/10/24 06:29:21;;;;;;;12.75;3.65;;;16.90;99.90;;;;;;6188170;28;20135;-83
2022/10/24 06:32:23;;;;;;;11.55;3.45;;;16.90;99.90;;;;;;6183304;28;20047;-83
2022/10/24 06:35:26;;;;;;;16.75;3.15;;;16.90;99.90;;;;;;6181712;28;20061;-83
2022/10/24 06:38:28;;;;;;;10.15;2.08;;;17.00;99.90;;;;;;6183546;28;20065;-84
2022/10/24 06:41:30;;;;;;;8.45;2.03;;;17.00;99.90;;;;;;6189806;28;20547;-84
2022/10/24 06:44:31;;;;;;;10.20;3.03;;;17.00;99.90;;;;;;6189991;28;20101;-83
2022/10/24 06:47:33;;;;;;;7.03;2.35;;;17.00;99.90;;;;;;6189808;28;20047;-83
2022/10/24 06:50:38;;;;;;;9.95;2.13;;;17.10;99.90;;;;;;6199612;28;20045;-83
2022/10/24 06:53:40;;;;;;;8.25;2.50;;;17.10;99.90;;;;;;6207987;28;20035;-83
2022/10/24 06:56:42;;;;;;;8.75;1.88;;;17.10;99.90;;;;;;6196879;28;20046;-83
2022/10/24 06:59:44;;;;;;;12.45;2.70;;;17.10;99.90;;;;;;6192846;28;20053;-83
2022/10/24 07:02:45;;;;;;;5.72;2.15;;;17.10;99.90;;;;;;6192236;28;20051;-84
2022/10/24 07:05:48;;;;;;;12.57;2.95;;;17.10;99.90;;;;;;6192481;28;20053;-84
2022/10/24 07:08:51;;;;;;;10.27;3.20;;;17.00;99.90;;;;;;6189834;28;20047;-83
2022/10/24 07:11:52;;;;;;;6.95;1.77;;;16.90;99.90;;;;;;6183731;28;20057;-84
2022/10/24 07:14:54;;;;;;;11.77;2.25;;;17.10;99.90;;;;;;6184708;28;20061;-83
2022/10/24 07:17:56;;;;;;;4.88;2.20;;;17.10;99.90;;;;;;6184064;28;20051;-83
2022/10/24 07:21:02;;;;;;;8.27;1.77;;;17.20;99.90;;;;;;6184546;28;20121;-83
2022/10/24 07:24:05;;;;;;;4.55;1.50;;;17.10;99.90;;;;;;6204446;28;20050;-83
2022/10/24 07:27:07;;;;;;;5.93;1.50;;;17.20;99.90;;;;;;6208974;28;20073;-83
2022/10/24 07:30:14;;;;;;;6.00;2.28;;;17.30;99.90;;;;;;6189267;28;20061;-83
2022/10/24 07:33:16;;;;;;;4.78;1.27;;;17.30;99.90;;;;;;6184656;28;20047;-83
2022/10/24 07:36:20;;;;;;;4.18;1.10;;;17.50;99.90;;;;;;6217888;23;20058;-81
2022/10/24 07:39:22;;;;;;;5.63;1.83;;;17.50;99.90;;;;;;6205142;28;20053;-82
2022/10/24 07:42:24;;;;;;;7.32;2.22;;;17.60;99.90;;;;;;6204281;28;20047;-82
2022/10/24 07:45:27;;;;;;;8.68;2.05;;;17.60;99.90;;;;;;6205921;28;20065;-83
2022/10/24 07:48:28;;;;;;;5.40;1.92;;;17.60;99.90;;;;;;6205456;28;20177;-82
2022/10/24 07:51:31;;;;;;;5.93;1.98;;;17.80;99.90;;;;;;6206702;28;20069;-82
2022/10/24 07:54:34;;;;;;;10.70;2.17;;;17.80;99.90;;;;;;6209515;28;20034;-82
2022/10/24 07:57:35;;;;;;;11.05;2.90;;;17.90;99.90;;;;;;6207990;28;20050;-82
2022/10/24 08:00:37;;;;;;;8.23;2.03;;;18.00;99.90;;;;;;6182098;28;20057;-81
2022/10/24 08:03:39;;;;;;;11.45;2.15;;;18.10;99.90;;;;;;6230939;28;20049;-82
2022/10/24 08:06:43;;;;;;;13.30;2.17;;;18.20;99.90;;;;;;6245211;28;20060;-81
2022/10/24 08:09:47;;;;;;;11.77;1.85;;;18.30;99.90;;;;;;6240312;28;20050;-81
2022/10/24 08:12:48;;;;;;;6.47;1.73;;;18.50;99.90;;;;;;6243160;28;20042;-81
2022/10/24 08:15:50;;;;;;;5.18;1.48;;;18.80;99.90;;;;;;6229194;28;20045;-81
2022/10/24 08:18:54;;;;;;;10.60;3.67;;;19.00;99.90;;;;;;6228169;28;20054;-81
2022/10/24 08:21:57;;;;;;;9.68;1.90;;;19.30;99.90;;;;;;6228143;28;20057;-81
2022/10/24 08:24:59;;;;;;;11.48;2.10;;;19.40;99.90;;;;;;6228519;28;20529;-81
2022/10/24 08:28:01;;;;;;;8.10;1.77;;;19.40;99.90;;;;;;6234178;28;20049;-81
2022/10/24 08:31:05;;;;;;;9.40;1.75;;;19.40;99.90;;;;;;6233332;28;20053;-81
2022/10/24 08:34:07;;;;;;;4.15;1.85;;;19.40;99.90;;;;;;6230520;28;20066;-81
2022/10/24 08:37:10;;;;;;;8.82;1.65;;;19.30;99.90;;;;;;6244453;28;20087;-81
2022/10/24 08:40:15;;;;;;;6.50;1.65;;;19.30;99.90;;;;;;6253519;28;20049;-82
2022/10/24 08:43:19;;;;;;;6.13;1.38;;;19.40;99.90;;;;;;6252893;28;20046;-82
2022/10/24 08:46:34;;;;;;;8.40;1.98;;;19.40;99.90;;;;;;6251835;28;20050;-83
2022/10/24 08:49:40;;;;;;;4.80;1.98;;;19.40;99.90;;;;;;6253166;28;20056;-81
2022/10/24 08:52:46;;;;;;;11.77;1.50;;;19.60;99.90;;;;;;6252710;28;20120;-82
2022/10/24 08:55:52;;;;;;;9.40;1.52;;;19.60;99.90;;;;;;6252439;28;20060;-83
2022/10/24 08:58:54;;;;;;;14.00;2.17;;;19.70;99.90;;;;;;6251439;28;20049;-82
2022/10/24 09:01:59;;;;;;;11.82;1.70;;;19.70;99.90;;;;;;6252504;28;20056;-81
2022/10/24 09:05:11;;;;;;;11.32;1.67;;;19.70;99.90;;;;;;6246365;28;20052;-81
2022/10/24 09:08:22;;;;;;;11.85;1.60;;;19.80;99.90;;;;;;6246770;28;20068;-80
2022/10/24 09:11:30;;;;;;;7.05;1.92;;;19.80;99.90;;;;;;6252873;28;20049;-81
2022/10/24 09:14:34;;;;;;;8.40;1.17;;;20.00;99.90;;;;;;6254351;28;20498;-79
2022/10/24 09:17:36;;;;;;;9.30;2.30;;;20.20;99.90;;;;;;6251585;28;20053;-82
2022/10/24 09:20:38;;;;;;;4.75;1.13;;;20.30;99.90;;;;;;6252830;28;20426;-81
2022/10/24 09:23:42;;;;;;;7.40;1.40;;;20.40;99.90;;;;;;6249974;28;20438;-81
2022/10/24 09:26:44;;;;;;;5.28;1.58;;;20.50;99.90;;;;;;6248561;28;20050;-81
2022/10/24 09:29:46;;;;;;;10.30;1.92;;;20.70;99.90;;;;;;6245462;28;20053;-80
2022/10/24 09:32:48;;;;;;;7.93;1.48;;;20.80;99.90;;;;;;6222410;28;20666;-80
2022/10/24 09:35:51;;;;;;;13.00;2.85;;;20.90;99.90;;;;;;6231090;28;20047;-81
2022/10/24 09:38:54;;;;;;;3.28;1.02;;;21.00;99.90;;;;;;6224305;28;20052;-81
2022/10/24 09:41:56;;;;;;;5.28;1.05;;;21.10;99.90;;;;;;6202047;28;20664;-80
2022/10/24 09:44:59;;;;;;;8.02;3.75;;;21.10;99.90;;;;;;6212532;28;20052;-81
2022/10/24 09:48:04;;;;;;;12.00;1.67;;;21.20;99.90;;;;;;6223517;28;20050;-82
2022/10/24 09:51:07;;;;;;;4.20;1.77;;;21.30;99.90;;;;;;6224370;28;20054;-80
2022/10/24 09:54:26;;;;;;;10.35;1.88;;;21.50;99.90;;;;;;6224056;28;20411;-81
2022/10/24 09:57:37;;;;;;;5.25;1.45;;;21.60;99.90;;;;;;6223263;28;20068;-80
2022/10/24 10:00:39;;;;;;;5.25;1.35;;;21.80;99.90;;;;;;6224408;28;20049;-81
2022/10/24 10:03:40;;;;;;;4.43;1.33;;;21.90;99.90;;;;;;6222771;28;20408;-81
2022/10/24 10:06:44;;;;;;;11.10;1.35;;;22.00;99.90;;;;;;6223783;28;20046;-81
2022/10/24 10:09:51;;;;;;;4.68;1.30;;;22.00;99.90;;;;;;6225254;28;20046;-81
2022/10/24 10:12:59;;;;;;;7.18;1.17;;;22.10;99.90;;;;;;6225082;28;20057;-81
2022/10/24 10:16:04;;;;;;;4.25;1.42;;;22.00;99.90;;;;;;6223633;28;20053;-81
2022/10/24 10:19:14;;;;;;;8.18;1.88;;;21.90;99.90;;;;;;6224803;28;20525;-80
2022/10/24 10:22:23;;;;;;;8.00;1.23;;;21.90;99.90;;;;;;6224168;28;20305;-81
2022/10/24 10:25:31;;;;;;;6.60;1.67;;;22.00;99.90;;;;;;6224739;28;20415;-82
2022/10/24 10:28:35;;;;;;;7.13;1.98;;;22.10;99.90;;;;;;6224392;28;20057;-81
2022/10/24 10:31:40;;;;;;;8.88;1.48;;;22.20;99.90;;;;;;6222976;28;20054;-81
2022/10/24 10:34:46;;;;;;;6.70;1.42;;;22.30;99.90;;;;;;6223970;28;20053;-81
2022/10/24 10:37:54;;;;;;;8.38;1.15;;;22.30;99.90;;;;;;6223682;28;20045;-81
2022/10/24 10:41:03;;;;;;;4.97;1.45;;;22.50;99.90;;;;;;6227415;28;20057;-82
2022/10/24 10:44:27;;;;;;;9.85;1.50;;;22.80;99.90;;;;;;6225661;28;20046;-81
2022/10/24 10:47:36;;;;;;;8.73;1.15;;;22.90;99.90;;;;;;6226450;28;20055;-81
2022/10/24 10:50:41;;;;;;;10.20;1.65;;;23.10;99.90;;;;;;6228701;28;20054;-81
2022/10/24 10:53:50;;;;;;;6.95;1.25;;;23.40;99.90;;;;;;6229455;28;20042;-81
2022/10/24 10:56:59;;;;;;;8.48;2.45;;;23.60;99.90;;;;;;6229350;28;20053;-81
2022/10/24 11:00:08;;;;;;;5.90;1.50;;;23.50;99.90;;;;;;6228433;28;20065;-82
2022/10/24 11:03:23;;;;;;;11.02;1.25;;;23.50;99.90;;;;;;6230157;28;20046;-81
2022/10/24 11:06:41;;;;;;;8.77;1.00;;;23.50;99.90;;;;;;6205569;28;20055;-81
2022/10/24 11:09:45;;;;;;;5.05;1.58;;;23.60;99.90;;;;;;6209130;28;20062;-81
2022/10/24 11:12:48;;;;;;;3.88;1.27;;;23.70;99.90;;;;;;6210621;28;20507;-81
2022/10/24 11:15:54;;;;;;;6.95;1.25;;;23.60;99.90;;;;;;6210968;28;20081;-81
2022/10/24 11:19:00;;;;;;;12.45;1.38;;;23.60;99.90;;;;;;6211247;28;20492;-81
2022/10/24 11:22:04;;;;;;;7.75;1.00;;;23.60;99.90;;;;;;6210668;28;20046;-82
2022/10/24 11:25:16;;;;;;;11.07;1.27;;;23.60;99.90;;;;;;6211837;28;20109;-81
2022/10/24 11:28:25;;;;;;;5.55;1.58;;;23.70;99.90;;;;;;6216762;28;20054;-81
2022/10/24 11:31:31;;;;;;;9.93;2.33;;;23.80;99.90;;;;;;6203108;28;20065;-81
2022/10/24 11:34:40;;;;;;;10.93;1.95;;;23.90;99.90;;;;;;6201657;28;20050;-80
2022/10/24 11:37:45;;;;;;;7.07;1.70;;;23.80;99.90;;;;;;6200844;28;20497;-81
2022/10/24 11:40:53;;;;;;;12.13;2.38;;;23.90;99.90;;;;;;6188785;28;20055;-80
2022/10/24 11:44:01;;;;;;;6.93;1.35;;;24.00;99.90;;;;;;6207703;28;20054;-82
2022/10/24 11:47:29;;;;;;;5.22;1.52;;;24.10;99.90;;;;;;6212581;28;20057;-82
2022/10/24 11:50:37;;;;;;;7.05;1.42;;;24.10;99.90;;;;;;6210742;28;20047;-81
2022/10/24 11:53:52;;;;;;;7.53;1.27;;;24.10;99.90;;;;;;6214218;28;20049;-80
2022/10/24 11:56:58;;;;;;;8.50;1.77;;;24.00;99.90;;;;;;6209776;28;20047;-81
2022/10/24 12:00:01;;;;;;;7.05;1.40;;;24.00;99.90;;;;;;6209402;28;20046;-80
2022/10/24 12:03:33;;;;;;;6.72;1.38;;;23.90;99.90;;;;;;6209630;28;20053;-80
2022/10/24 12:06:57;;;;;;;6.32;0.88;;;23.90;99.90;;;;;;6194852;28;20051;-80
2022/10/24 12:10:17;;;;;;;6.05;0.98;;;23.80;99.90;;;;;;6184558;28;20523;-80
2022/10/24 12:13:50;;;;;;;9.45;1.25;;;23.80;99.90;;;;;;6186680;28;20049;-81
2022/10/24 12:17:15;;;;;;;5.20;1.45;;;23.80;99.90;;;;;;6184608;28;20046;-80
2022/10/24 12:20:20;;;;;;;3.83;1.05;;;23.90;99.90;;;;;;6183916;28;20527;-81
2022/10/24 12:23:26;;;;;;;7.68;0.93;;;24.10;99.90;;;;;;6179008;28;20058;-80
2022/10/24 12:26:30;;;;;;;7.10;1.42;;;24.20;99.90;;;;;;6177090;28;20525;-80
2022/10/24 12:29:34;;;;;;;4.78;1.75;;;24.40;99.90;;;;;;6177158;28;20099;-79
2022/10/24 12:32:40;;;;;;;12.50;2.10;;;24.50;99.90;;;;;;6180178;28;20146;-80
2022/10/24 12:35:50;;;;;;;6.25;1.27;;;24.60;99.90;;;;;;6198503;28;20053;-80
2022/10/24 12:39:08;;;;;;;8.35;0.98;;;24.80;99.20;;;;;;6201807;28;20133;-80
2022/10/24 12:43:00;;;;;;;10.40;1.77;;;25.00;99.90;;;;;;6201125;28;20058;-80
2022/10/24 12:46:33;;;;;;;8.60;0.85;;;25.30;99.90;;;;;;6201990;28;20042;-81
2022/10/24 12:49:36;;;;;;;8.70;1.27;;;25.70;98.70;;;;;;6201312;28;20073;-80
2022/10/24 12:53:02;;;;;;;10.98;2.08;;;25.60;97.20;;;;;;6201695;28;20050;-80
2022/10/24 12:56:16;;;;;;;9.50;1.55;;;25.60;95.50;;;;;;6200694;28;20050;-80
2022/10/24 12:59:20;;;;;;;8.95;1.17;;;25.60;95.70;;;;;;6201086;28;20516;-80
2022/10/24 13:02:51;;;;;;;8.82;3.33;;;25.60;95.60;;;;;;6200395;28;20046;-80
2022/10/24 13:06:01;;;;;;;6.20;1.35;;;25.50;96.40;;;;;;6193474;28;20070;-80
2022/10/24 13:09:16;;;;;;;8.82;1.63;;;25.60;95.90;;;;;;6178514;28;20051;-80
2022/10/24 13:12:39;;;;;;;3.85;1.35;;;25.60;95.70;;;;;;6177061;28;20050;-80
2022/10/24 13:15:46;;;;;;;11.80;1.27;;;25.60;94.80;;;;;;6177249;28;20046;-81
2022/10/24 13:19:00;;;;;;;9.23;1.83;;;25.70;95.00;;;;;;6177810;28;20050;-80
2022/10/24 13:22:03;;;;;;;13.55;1.38;;;25.70;94.70;;;;;;6177519;28;20054;-80
2022/10/24 13:25:32;;;;;;;3.83;1.33;;;25.70;95.40;;;;;;6178575;28;20047;-80
2022/10/24 13:28:39;;;;;;;8.20;1.40;;;25.80;96.00;;;;;;6179848;28;20193;-80
2022/10/24 13:31:44;;;;;;;3.28;1.02;;;26.10;96.00;;;;;;6179200;28;20129;-80
2022/10/24 13:34:53;;;;;;;6.97;1.42;;;26.10;94.80;;;;;;6201489;28;20047;-80
2022/10/24 13:37:57;;;;;;;9.20;2.20;;;26.20;94.50;;;;;;6207909;23;20050;-83
2022/10/24 13:40:59;;;;;;;5.30;1.23;;;26.40;94.70;;;;;;6187281;28;20050;-81
2022/10/24 13:44:07;;;;;;;8.98;1.40;;;26.50;94.40;;;;;;6184050;28;20054;-82
2022/10/24 13:47:14;;;;;;;;;;;26.60;94.00;;;;;;6188086;28;20061;-82
2022/10/24 13:50:21;;;;;;;11.10;2.75;;;26.80;97.00;;;;;;6190125;28;20342;-81
2022/10/24 13:53:28;;;;;;;9.13;2.43;;;26.60;94.60;;;;;;6182057;28;20073;-81
2022/10/24 13:56:35;;;;;;;5.30;1.30;;;26.10;92.90;;;;;;6177638;28;20051;-81
2022/10/24 13:59:38;;;;;;;1.63;0.80;;;25.60;94.10;;;;;;6177397;28;20054;-81
2022/10/24 14:02:42;;;;;;;5.05;1.10;;;25.20;94.80;;;;;;6178331;28;20061;-81
2022/10/24 14:05:47;;;;;;;8.00;1.08;;;24.90;95.10;;;;;;6171161;28;20048;-82
2022/10/24 14:08:52;;;;;;;6.70;1.30;;;24.70;95.70;;;;;;6157626;28;20043;-81
2022/10/24 14:11:56;;;;;;;7.55;2.35;;;24.50;95.50;;;;;;6169562;29;20050;-81
2022/10/24 14:15:01;;;;;;;2.88;1.23;;;24.20;95.90;;;;;;6159684;29;20051;-82
2022/10/24 14:18:07;;;;;;;7.35;1.50;;;23.90;95.60;;;;;;6154352;28;20055;-82
2022/10/24 14:21:18;;;;;;;6.07;1.17;;;23.50;95.80;;;;;;6153767;29;20050;-82
2022/10/24 14:24:22;;;;;;;6.90;2.55;;;23.30;96.30;;;;;;6153660;29;20047;-81
2022/10/24 14:27:24;;;;;;;3.53;0.90;;;23.20;96.40;;;;;;6153269;28;20107;-82
2022/10/24 14:30:30;;;;;;;6.65;1.27;;;23.20;96.50;;;;;;6160089;28;20495;-82
2022/10/24 14:33:41;;;;;;;14.05;2.53;;;23.40;97.50;;;;;;6177403;28;20047;-82
2022/10/24 14:36:42;;;;;;;2.97;1.17;;;23.80;96.80;;;;;;6171535;28;20527;-82
2022/10/24 14:39:46;;;;;;;5.95;0.90;;;24.30;96.70;;;;;;6176866;28;20345;-82
2022/10/24 14:42:48;;;;;;;5.38;1.23;;;24.50;95.70;;;;;;6180246;28;20508;-82
2022/10/24 14:46:08;;;;;;;9.60;1.85;;;24.70;96.00;;;;;;6181447;28;20051;-82
2022/10/24 14:49:32;;;;;;;3.20;1.10;;;24.80;96.20;;;;;;6181475;28;20047;-83
2022/10/24 14:52:36;;;;;;;4.43;1.02;;;25.00;95.80;;;;;;6180405;28;20067;-83
2022/10/24 14:55:39;;;;;;;2.10;0.70;;;25.00;94.40;;;;;;6181011;28;20481;-83
2022/10/24 14:58:41;;;;;;;8.60;2.38;;;24.90;94.40;;;;;;6181907;28;20065;-83
2022/10/24 15:01:56;;;;;;;10.52;3.78;;;24.80;94.20;;;;;;6181078;28;20420;-83
2022/10/24 15:05:30;;;;;;;5.25;1.20;;;24.70;94.00;;;;;;6180188;28;20043;-85
2022/10/24 15:08:37;;;;;;;10.52;1.73;;;24.60;93.20;;;;;;6157560;29;20047;-83
2022/10/24 15:11:42;;;;;;;5.63;0.80;;;24.40;91.90;;;;;;6156926;28;20058;-83
2022/10/24 15:14:47;;;;;;;8.82;1.33;;;24.20;91.60;;;;;;6156820;29;20417;-82
2022/10/24 15:17:50;;;;;;;7.28;1.20;;;24.10;91.60;;;;;;6155835;28;20648;-84
2022/10/24 15:20:54;;;;;;;4.90;1.10;;;24.10;91.10;;;;;;6157184;28;20047;-83
2022/10/24 15:23:58;;;;;;;11.88;1.40;;;24.00;90.60;;;;;;6153652;28;20055;-83
2022/10/24 15:27:11;;;;;;;6.00;1.63;;;23.70;91.00;;;;;;6154352;28;20062;-83
2022/10/24 15:30:14;;;;;;;2.05;0.88;;;23.40;90.60;;;;;;6152356;28;20051;-81
2022/10/24 15:33:18;;;;;;;4.28;1.27;;;23.10;90.80;;;;;;6162540;28;20074;-81
2022/10/24 15:36:22;;;;;;;2.58;0.47;;;22.80;90.90;;;;;;6170618;28;20039;-81
2022/10/24 15:39:25;;;;;;;2.10;0.80;;;22.50;91.10;;;;;;6176498;28;20054;-82
2022/10/24 15:42:28;;;;;;;9.35;1.00;;;22.30;91.40;;;;;;6155332;29;20134;-80
2022/10/24 15:45:30;;;;;;;5.10;1.20;;;22.10;91.60;;;;;;6153248;28;20047;-82
2022/10/24 15:48:31;;;;;;;7.47;0.60;;;21.90;91.90;;;;;;6153539;29;20054;-81
2022/10/24 15:51:33;;;;;;;2.42;0.75;;;21.70;92.20;;;;;;6153729;29;20058;-81
2022/10/24 15:54:35;;;;;;;2.75;0.95;;;21.50;92.50;;;;;;6153212;28;20062;-80
2022/10/24 15:57:38;;;;;;;5.82;1.08;;;21.30;92.80;;;;;;6153794;28;20051;-80
2022/10/24 16:00:40;;;;;;;3.45;1.15;;;21.10;93.10;;;;;;6154403;29;20062;-82
2022/10/24 16:03:41;;;;;;;3.13;0.90;;;20.80;93.40;;;;;;6166666;28;20043;-82